Time;durP1;ratioP1;P1;durP2;ratioP2;P2;SDS_P1;SDS_P2;PMS_P1;PMS_P2;Temp;Humidity;BMP_temperature;BMP_pressure;BME280_temperature;BME280_humidity;BME280_pressure;Samples;Min_cycle;Max_cycle;Signal;HPM_P1;HPM_P2
2023/03/30 15:40:37;;;;;;;9.23;2.70;;;;;;;;;;5125501;27;20350;-62
2023/03/30 15:43:12;;;;;;;4.85;2.50;;;;;;;;;;5024705;28;20512;-75
2023/03/30 15:45:38;;;;;;;11.38;3.75;;;;;;;;;;5009003;28;20021;-63
2023/03/30 15:48:05;;;;;;;7.05;2.80;;;;;;;;;;5025903;28;20042;-62
2023/03/30 15:50:34;;;;;;;7.30;2.65;;;;;;;;;;5025621;28;20025;-63
2023/03/30 15:53:01;;;;;;;5.35;2.50;;;;;;;;;;5025330;28;20046;-69
2023/03/30 15:55:31;;;;;;;10.27;2.47;;;;;;;;;;5026094;28;20076;-65
2023/03/30 15:57:58;;;;;;;11.10;3.35;;;;;;;;;;5025295;28;20034;-63
2023/03/30 16:00:28;;;;;;;49.55;17.58;;;;;;;;;;5025700;28;20053;-63
2023/03/30 16:02:59;;;;;;;23.35;7.22;;;;;;;;;;5024148;28;20021;-63
2023/03/30 16:05:29;;;;;;;6.60;2.67;;;;;;;;;;5024710;28;20037;-63
2023/03/30 16:07:55;;;;;;;12.00;4.88;;;;;;;;;;5025344;28;20073;-63
2023/03/30 16:10:23;;;;;;;15.90;6.50;;;;;;;;;;5008501;28;20026;-63
2023/03/30 16:12:51;;;;;;;19.50;6.32;;;;;;;;;;5025095;28;20033;-64
2023/03/30 16:15:19;;;;;;;9.25;3.35;;;;;;;;;;5024699;28;20545;-62
2023/03/30 16:17:45;;;;;;;10.02;3.72;;;;;;;;;;5024779;28;20033;-66
2023/03/30 16:20:15;;;;;;;9.80;4.53;;;;;;;;;;5092756;28;20550;-63
2023/03/30 16:22:42;;;;;;;8.65;4.15;;;;;;;;;;5088915;28;20032;-65
2023/03/30 16:25:08;;;;;;;7.68;3.80;;;;;;;;;;5107552;28;20035;-71
2023/03/30 16:27:35;;;;;;;8.50;3.75;;;;;;;;;;5107252;28;20583;-64
2023/03/30 16:30:01;;;;;;;7.68;3.40;;;;;;;;;;5107396;28;20093;-71
2023/03/30 16:32:27;;;;;;;7.50;3.70;;;;;;;;;;5107328;28;20051;-75
2023/03/30 16:34:53;;;;;;;9.07;4.32;;;;;;;;;;5107168;28;20051;-73
2023/03/30 16:37:19;;;;;;;13.55;4.20;;;;;;;;;;5107454;28;20035;-69
2023/03/30 16:39:46;;;;;;;10.00;3.78;;;;;;;;;;5089654;28;20060;-71
2023/03/30 16:42:12;;;;;;;10.07;3.70;;;;;;;;;;5087186;28;20204;-67
2023/03/30 16:44:38;;;;;;;7.28;3.40;;;;;;;;;;5086891;28;20024;-65
2023/03/30 16:47:04;;;;;;;10.52;4.15;;;;;;;;;;5076458;28;20406;-71
2023/03/30 16:49:30;;;;;;;11.65;4.18;;;;;;;;;;5072874;28;20388;-75
2023/03/30 16:51:56;;;;;;;10.80;3.60;;;;;;;;;;5061693;28;20039;-65
2023/03/30 16:54:22;;;;;;;8.02;4.00;;;;;;;;;;5064257;28;20623;-64
2023/03/30 16:56:48;;;;;;;7.32;3.53;;;;;;;;;;5065470;28;20028;-63
2023/03/30 16:59:22;;;;;;;8.98;3.25;;;;;;;;;;5039064;28;20198;-73
2023/03/30 17:01:48;;;;;;;8.50;3.22;;;;;;;;;;5059197;28;20020;-64
2023/03/30 17:04:14;;;;;;;11.55;5.40;;;;;;;;;;5070059;28;20040;-69
2023/03/30 17:06:40;;;;;;;17.17;7.97;;;;;;;;;;5073521;28;20529;-65
2023/03/30 17:09:11;;;;;;;15.30;8.00;;;;;;;;;;5069934;28;20032;-64
2023/03/30 17:11:37;;;;;;;15.43;7.30;;;;;;;;;;5073165;28;20028;-66
2023/03/30 17:14:04;;;;;;;22.88;10.20;;;;;;;;;;5073073;28;20365;-63
2023/03/30 17:16:30;;;;;;;43.22;22.38;;;;;;;;;;5072615;28;20095;-64
2023/03/30 17:18:56;;;;;;;44.58;22.80;;;;;;;;;;5072823;28;20040;-69
2023/03/30 17:21:22;;;;;;;44.10;22.45;;;;;;;;;;5054969;28;20028;-64
2023/03/30 17:23:48;;;;;;;46.00;22.95;;;;;;;;;;5069362;28;20448;-65
2023/03/30 17:26:15;;;;;;;43.47;23.40;;;;;;;;;;5073208;28;20056;-64
2023/03/30 17:28:41;;;;;;;50.38;24.13;;;;;;;;;;5061974;28;20078;-65
2023/03/30 17:31:18;;;;;;;43.05;24.38;;;;;;;;;;5065956;28;20093;-73
2023/03/30 17:33:44;;;;;;;44.92;23.63;;;;;;;;;;5061824;28;20025;-71
2023/03/30 17:36:24;;;;;;;35.33;20.30;;;;;;;;;;5061742;28;20040;-64
2023/03/30 17:38:51;;;;;;;36.85;20.98;;;;;;;;;;5061263;28;20068;-65
2023/03/30 17:41:18;;;;;;;44.80;24.15;;;;;;;;;;5041802;28;20039;-66
2023/03/30 17:43:44;;;;;;;53.60;26.88;;;;;;;;;;5062136;28;20025;-68
2023/03/30 17:46:11;;;;;;;57.13;29.48;;;;;;;;;;5061367;28;20017;-65
2023/03/30 17:48:38;;;;;;;50.78;28.10;;;;;;;;;;5060300;28;20043;-72
2023/03/30 17:51:04;;;;;;;66.88;36.88;;;;;;;;;;5060467;28;20561;-65
2023/03/30 17:53:30;;;;;;;67.80;34.38;;;;;;;;;;5054779;28;20445;-69
2023/03/30 17:55:57;;;;;;;61.75;32.17;;;;;;;;;;5052548;28;20108;-72
2023/03/30 17:58:24;;;;;;;53.30;29.80;;;;;;;;;;5059486;28;20036;-64
2023/03/30 18:00:51;;;;;;;56.05;29.42;;;;;;;;;;5040898;28;20396;-64
2023/03/30 18:03:19;;;;;;;47.90;25.88;;;;;;;;;;5060294;28;20480;-67
2023/03/30 18:05:45;;;;;;;49.45;26.10;;;;;;;;;;5059982;28;20495;-70
2023/03/30 18:08:20;;;;;;;51.00;25.90;;;;;;;;;;5043684;28;20078;-70
2023/03/30 18:10:47;;;;;;;51.35;26.83;;;;;;;;;;5061862;28;20483;-65
2023/03/30 18:13:13;;;;;;;52.50;28.80;;;;;;;;;;5060088;28;20491;-65
2023/03/30 18:15:39;;;;;;;55.95;28.48;;;;;;;;;;5059900;28;20051;-65
2023/03/30 18:18:05;;;;;;;54.65;27.23;;;;;;;;;;5061476;28;20431;-64
2023/03/30 18:20:39;;;;;;;52.90;24.95;;;;;;;;;;5059502;28;20039;-65
2023/03/30 18:23:05;;;;;;;47.33;24.80;;;;;;;;;;5057768;28;20186;-65
2023/03/30 18:25:31;;;;;;;44.30;23.98;;;;;;;;;;5051912;28;20029;-66
2023/03/30 18:27:57;;;;;;;37.95;20.17;;;;;;;;;;5071273;28;20552;-65
2023/03/30 18:30:38;;;;;;;38.42;17.83;;;;;;;;;;5071219;28;20479;-65
2023/03/30 18:33:05;;;;;;;30.02;16.20;;;;;;;;;;5071626;28;20039;-65
2023/03/30 18:35:33;;;;;;;39.05;15.23;;;;;;;;;;5065454;28;20123;-64
2023/03/30 18:37:59;;;;;;;26.98;13.35;;;;;;;;;;5060770;28;20036;-67
2023/03/30 18:40:30;;;;;;;23.00;12.35;;;;;;;;;;5059284;28;20028;-65
2023/03/30 18:42:56;;;;;;;23.27;11.60;;;;;;;;;;5059500;28;20158;-65
2023/03/30 18:45:25;;;;;;;24.52;11.80;;;;;;;;;;5061046;28;20103;-65
2023/03/30 18:47:52;;;;;;;26.95;12.25;;;;;;;;;;5059909;28;20162;-66
2023/03/30 18:50:22;;;;;;;27.05;12.60;;;;;;;;;;5059289;28;20028;-65
2023/03/30 18:52:48;;;;;;;26.90;13.07;;;;;;;;;;5041048;28;20025;-66
2023/03/30 18:55:15;;;;;;;24.88;13.32;;;;;;;;;;5059787;28;20146;-65
2023/03/30 18:57:41;;;;;;;34.22;15.82;;;;;;;;;;5053453;28;20025;-65
2023/03/30 19:00:13;;;;;;;26.52;14.40;;;;;;;;;;5049722;28;20064;-64
2023/03/30 19:02:39;;;;;;;33.40;16.33;;;;;;;;;;5050793;28;20430;-64
2023/03/30 19:05:07;;;;;;;35.63;17.13;;;;;;;;;;5033013;28;20388;-64
2023/03/30 19:07:33;;;;;;;35.03;16.13;;;;;;;;;;5050997;28;20045;-64
2023/03/30 19:09:59;;;;;;;29.33;15.15;;;;;;;;;;5061293;28;20074;-63
2023/03/30 19:12:25;;;;;;;33.50;14.98;;;;;;;;;;5066381;28;20038;-64
2023/03/30 19:14:51;;;;;;;23.83;12.40;;;;;;;;;;5059593;28;20389;-65
2023/03/30 19:17:17;;;;;;;29.83;13.25;;;;;;;;;;5040797;28;20490;-63
2023/03/30 19:19:43;;;;;;;30.27;12.55;;;;;;;;;;5060667;28;20078;-64
2023/03/30 19:22:10;;;;;;;23.85;10.82;;;;;;;;;;5052830;28;20102;-68
2023/03/30 19:24:36;;;;;;;22.50;11.57;;;;;;;;;;5052811;28;20028;-64
2023/03/30 19:27:06;;;;;;;20.95;10.45;;;;;;;;;;5050706;28;20021;-64
2023/03/30 19:29:33;;;;;;;20.65;10.48;;;;;;;;;;5053156;28;20111;-64
2023/03/30 19:31:59;;;;;;;24.27;10.50;;;;;;;;;;5050745;28;20021;-64
2023/03/30 19:34:25;;;;;;;22.52;10.30;;;;;;;;;;5050401;28;20132;-64
2023/03/30 19:36:51;;;;;;;21.38;10.52;;;;;;;;;;5050823;28;20029;-64
2023/03/30 19:39:17;;;;;;;18.20;10.10;;;;;;;;;;5066515;28;20140;-65
2023/03/30 19:41:43;;;;;;;20.38;10.30;;;;;;;;;;5070627;28;20028;-66
2023/03/30 19:44:09;;;;;;;17.65;9.15;;;;;;;;;;5070452;28;20513;-64
2023/03/30 19:46:37;;;;;;;18.35;8.45;;;;;;;;;;5070316;28;20028;-66
2023/03/30 19:49:03;;;;;;;20.02;9.98;;;;;;;;;;5063948;28;20029;-64
2023/03/30 19:51:29;;;;;;;17.27;8.68;;;;;;;;;;5066648;28;20020;-67
2023/03/30 19:53:56;;;;;;;18.83;8.95;;;;;;;;;;5059140;28;20094;-64
2023/03/30 19:56:23;;;;;;;15.38;8.80;;;;;;;;;;5058622;28;20024;-64
2023/03/30 19:58:50;;;;;;;21.05;9.15;;;;;;;;;;5052789;28;20033;-63
2023/03/30 20:01:16;;;;;;;17.05;8.73;;;;;;;;;;5050536;28;20445;-64
2023/03/30 20:03:42;;;;;;;20.77;9.95;;;;;;;;;;5050442;28;20068;-64
2023/03/30 20:06:10;;;;;;;26.17;10.98;;;;;;;;;;5050124;28;20082;-68
2023/03/30 20:08:36;;;;;;;21.38;10.20;;;;;;;;;;5050366;28;20041;-64
2023/03/30 20:11:07;;;;;;;22.25;10.48;;;;;;;;;;5050383;28;20504;-71
2023/03/30 20:13:33;;;;;;;23.23;11.57;;;;;;;;;;5050376;28;20143;-72
2023/03/30 20:16:00;;;;;;;19.67;10.23;;;;;;;;;;5049994;28;20025;-62
2023/03/30 20:18:26;;;;;;;19.00;9.25;;;;;;;;;;5049826;28;20025;-64
2023/03/30 20:20:52;;;;;;;20.85;10.25;;;;;;;;;;5050284;28;20021;-68
2023/03/30 20:23:18;;;;;;;22.35;10.50;;;;;;;;;;5049995;28;20099;-66
2023/03/30 20:25:49;;;;;;;21.92;11.30;;;;;;;;;;5033388;28;20040;-71
2023/03/30 20:28:16;;;;;;;22.40;11.68;;;;;;;;;;5069531;28;20515;-70
2023/03/30 20:30:42;;;;;;;19.92;10.25;;;;;;;;;;5073719;28;20469;-64
2023/03/30 20:33:09;;;;;;;20.30;10.48;;;;;;;;;;5074112;28;20392;-65
2023/03/30 20:35:36;;;;;;;17.30;9.27;;;;;;;;;;5052982;28;20039;-64
2023/03/30 20:38:03;;;;;;;20.23;9.85;;;;;;;;;;5053232;28;20063;-64
2023/03/30 20:40:29;;;;;;;19.60;9.27;;;;;;;;;;5056778;28;20143;-68
2023/03/30 20:43:01;;;;;;;19.33;10.02;;;;;;;;;;5054393;28;20025;-69
2023/03/30 20:45:28;;;;;;;22.17;11.15;;;;;;;;;;5053695;28;20029;-64
2023/03/30 20:47:54;;;;;;;33.15;17.30;;;;;;;;;;5053417;28;20100;-65
2023/03/30 20:50:20;;;;;;;30.70;13.20;;;;;;;;;;5053393;28;20052;-70
2023/03/30 20:52:46;;;;;;;26.17;13.20;;;;;;;;;;5053543;28;20094;-66
2023/03/30 20:55:12;;;;;;;26.52;13.05;;;;;;;;;;5053450;28;20108;-66
2023/03/30 20:57:38;;;;;;;22.63;11.75;;;;;;;;;;5053695;28;20025;-69
2023/03/30 21:00:08;;;;;;;23.00;11.50;;;;;;;;;;5053299;28;20242;-69
2023/03/30 21:02:35;;;;;;;25.42;12.48;;;;;;;;;;5053330;28;20040;-66
2023/03/30 21:05:01;;;;;;;23.52;12.15;;;;;;;;;;5060224;28;20476;-65
2023/03/30 21:07:28;;;;;;;30.80;10.98;;;;;;;;;;5060769;28;20106;-68
2023/03/30 21:09:54;;;;;;;17.08;8.65;;;;;;;;;;5061987;28;20036;-68
2023/03/30 21:12:20;;;;;;;23.88;10.40;;;;;;;;;;5063222;28;20060;-64
